createdAt,value
2023-01-25T00:02:23.841Z,101255.81
2023-01-25T00:04:50.413Z,101255.44
2023-01-25T00:07:16.941Z,101256.66
2023-01-25T00:09:43.469Z,101257.63
2023-01-25T00:12:09.928Z,101262.94
2023-01-25T00:14:36.915Z,101263.50
2023-01-25T00:17:03.529Z,101267.53
2023-01-25T00:19:30.068Z,101262.06
2023-01-25T00:21:56.772Z,101269.91
2023-01-25T00:24:24.257Z,101266.50
2023-01-25T00:26:50.778Z,101266.09
2023-01-25T00:29:17.874Z,101267.13
2023-01-25T00:32:14.053Z,101254.22
2023-01-25T00:34:46.239Z,101248.91
2023-01-25T00:37:20.581Z,101242.28
2023-01-25T00:39:47.537Z,101241.81
2023-01-25T00:42:15.942Z,101229.69
2023-01-25T00:44:42.850Z,101219.84
2023-01-25T00:47:12.921Z,101225.53
2023-01-25T00:49:41.188Z,101218.56
2023-01-25T00:52:08.390Z,101213.25
2023-01-25T00:54:34.945Z,101209.88
2023-01-25T00:57:01.496Z,101206.78
2023-01-25T00:59:28.023Z,101213.38
2023-01-25T01:01:54.819Z,101207.50
2023-01-25T01:04:25.075Z,101199.34
2023-01-25T01:06:53.838Z,101194.50
2023-01-25T01:09:21.858Z,101198.63
2023-01-25T01:11:48.676Z,101190.03
2023-01-25T01:14:15.283Z,101187.84
2023-01-25T01:16:41.965Z,101189.13
2023-01-25T01:19:08.987Z,101182.72
2023-01-25T01:21:35.467Z,101179.94
2023-01-25T01:24:02.083Z,101183.31
2023-01-25T01:26:28.634Z,101183.19
2023-01-25T01:28:55.175Z,101186.09
2023-01-25T01:31:24.218Z,101194.16
2023-01-25T01:33:52.646Z,101188.56
2023-01-25T01:36:21.728Z,101185.44
2023-01-25T01:38:48.367Z,101193.66
2023-01-25T01:41:16.155Z,101189.66
2023-01-25T01:43:43.356Z,101195.78
2023-01-25T01:46:35.941Z,101194.16
2023-01-25T01:49:23.815Z,101188.50
2023-01-25T01:52:06.266Z,101186.88
2023-01-25T01:54:42.490Z,101191.31
2023-01-25T01:57:29.733Z,101198.13
2023-01-25T02:00:18.530Z,101206.00
2023-01-25T02:02:46.621Z,101204.72
2023-01-25T02:05:40.662Z,101206.06
2023-01-25T02:08:10.623Z,101209.81
2023-01-25T02:10:38.753Z,101216.78
2023-01-25T02:13:05.250Z,101206.03
2023-01-25T02:15:42.035Z,101202.38
2023-01-25T02:18:10.617Z,101205.91
2023-01-25T02:20:52.549Z,101203.69
2023-01-25T02:23:51.660Z,101205.25
2023-01-25T02:26:19.667Z,101196.41
2023-01-25T02:28:55.847Z,101192.22
2023-01-25T02:31:22.544Z,101178.59
2023-01-25T02:33:49.471Z,101176.53
2023-01-25T02:36:21.322Z,101166.03
2023-01-25T02:39:01.505Z,101155.75
2023-01-25T02:41:36.284Z,101148.91
2023-01-25T02:44:04.513Z,101148.91
2023-01-25T02:46:36.066Z,101141.44
2023-01-25T02:49:04.771Z,101121.72
2023-01-25T02:51:34.656Z,101117.84
2023-01-25T02:54:02.567Z,101115.13
2023-01-25T02:56:30.127Z,101110.84
2023-01-25T02:58:56.816Z,101108.19
2023-01-25T03:01:23.785Z,101113.28
2023-01-25T03:03:50.310Z,101113.00
2023-01-25T03:06:17.146Z,101111.97
2023-01-25T03:08:43.684Z,101103.53
2023-01-25T03:11:10.239Z,101103.25
2023-01-25T03:13:38.188Z,101101.44
2023-01-25T03:16:08.393Z,101107.97
2023-01-25T03:18:35.956Z,101102.94
2023-01-25T03:21:23.421Z,101092.38
2023-01-25T03:23:57.018Z,101099.91
2023-01-25T03:26:24.312Z,101101.72
2023-01-25T03:28:50.823Z,101102.25
2023-01-25T03:31:18.435Z,101101.34
2023-01-25T03:33:46.261Z,101108.69
2023-01-25T03:36:13.177Z,101110.00
2023-01-25T03:38:39.820Z,101118.78
2023-01-25T03:41:06.403Z,101116.13
2023-01-25T03:43:32.936Z,101112.47
2023-01-25T03:46:01.581Z,101118.00
2023-01-25T03:48:29.111Z,101115.16
2023-01-25T03:50:58.142Z,101118.59
2023-01-25T03:53:29.798Z,101113.41
2023-01-25T03:55:59.672Z,101104.25
2023-01-25T03:58:26.830Z,101116.28
2023-01-25T04:00:56.346Z,101116.19
2023-01-25T04:03:23.558Z,101119.53
2023-01-25T04:05:50.746Z,101115.88
2023-01-25T04:08:18.049Z,101117.69
2023-01-25T04:10:45.642Z,101110.13
2023-01-25T04:13:12.159Z,101098.09
2023-01-25T04:15:38.694Z,101106.09
2023-01-25T04:18:05.222Z,101098.28
2023-01-25T04:20:31.763Z,101097.38
2023-01-25T04:22:58.339Z,101093.09
2023-01-25T04:25:24.898Z,101094.03
2023-01-25T04:27:51.691Z,101082.13
2023-01-25T04:30:19.397Z,101078.75
2023-01-25T04:32:46.683Z,101078.75
2023-01-25T04:35:13.383Z,101074.56
2023-01-25T04:37:39.881Z,101077.09
2023-01-25T04:40:07.721Z,101075.47
2023-01-25T04:42:34.430Z,101075.94
2023-01-25T04:45:00.959Z,101078.00
2023-01-25T04:47:27.425Z,101083.16
2023-01-25T04:49:53.861Z,101085.53
2023-01-25T04:52:20.545Z,101076.81
2023-01-25T04:54:47.100Z,101076.69
2023-01-25T04:57:13.648Z,101068.38
2023-01-25T04:59:40.187Z,101068.38
2023-01-25T05:02:06.770Z,101065.84
2023-01-25T05:04:33.332Z,101063.06
2023-01-25T05:06:59.846Z,101058.34
2023-01-25T05:09:26.295Z,101061.44
2023-01-25T05:11:52.939Z,101053.00
2023-01-25T05:14:19.430Z,101050.75
2023-01-25T05:16:47.388Z,101051.56
2023-01-25T05:19:14.059Z,101047.81
2023-01-25T05:21:58.926Z,101044.00
2023-01-25T05:24:35.379Z,101043.47
2023-01-25T05:27:05.737Z,101035.63
2023-01-25T05:29:37.861Z,101042.31
2023-01-25T05:32:18.584Z,101036.50
2023-01-25T05:34:45.612Z,101042.44
2023-01-25T05:37:18.513Z,101038.66
2023-01-25T05:39:45.257Z,101044.53
2023-01-25T05:42:17.623Z,101033.13
2023-01-25T05:44:47.038Z,101042.94
2023-01-25T05:47:16.633Z,101040.28
2023-01-25T05:49:43.420Z,101043.41
2023-01-25T05:52:17.211Z,101042.03
2023-01-25T05:54:43.906Z,101049.31
2023-01-25T05:57:10.603Z,101048.63
2023-01-25T05:59:37.114Z,101052.19
2023-01-25T06:02:03.680Z,101046.66
2023-01-25T06:04:30.225Z,101054.41
2023-01-25T06:06:56.733Z,101056.38
2023-01-25T06:09:23.580Z,101050.72
2023-01-25T06:11:50.230Z,101055.69
2023-01-25T06:14:17.161Z,101047.41
2023-01-25T06:16:43.677Z,101047.56
2023-01-25T06:19:13.561Z,101050.34
2023-01-25T06:21:40.197Z,101056.13
2023-01-25T06:24:07.301Z,101052.09
2023-01-25T06:26:33.822Z,101053.63
2023-01-25T06:29:00.446Z,101042.66
2023-01-25T06:31:27.605Z,101048.72
2023-01-25T06:33:54.344Z,101053.63
2023-01-25T06:36:22.104Z,101044.09
2023-01-25T06:38:50.729Z,101051.84
2023-01-25T06:41:17.491Z,101057.06
2023-01-25T06:43:44.246Z,101062.66
2023-01-25T06:46:14.210Z,101053.25
2023-01-25T06:48:42.948Z,101056.88
2023-01-25T06:51:12.450Z,101054.97
2023-01-25T06:53:41.981Z,101064.50
2023-01-25T06:56:12.034Z,101063.00
2023-01-25T06:58:39.739Z,101051.53
2023-01-25T07:01:13.839Z,101065.09
2023-01-25T07:03:41.001Z,101067.47
2023-01-25T07:06:09.951Z,101071.59
2023-01-25T07:08:37.385Z,101076.63
2023-01-25T07:11:09.531Z,101073.97
2023-01-25T07:13:36.080Z,101074.84
2023-01-25T07:16:06.020Z,101069.22
2023-01-25T07:18:33.328Z,101072.06
2023-01-25T07:21:11.111Z,101070.56
2023-01-25T07:23:38.440Z,101069.41
2023-01-25T07:26:06.280Z,101077.16
2023-01-25T07:28:33.305Z,101067.50
2023-01-25T07:31:07.233Z,101068.44
2023-01-25T07:33:34.720Z,101069.97
2023-01-25T07:36:06.506Z,101069.50
2023-01-25T07:38:33.622Z,101071.75
2023-01-25T07:41:01.071Z,101088.34
2023-01-25T07:43:27.924Z,101087.44
2023-01-25T07:45:54.582Z,101090.97
2023-01-25T07:48:21.405Z,101079.63
2023-01-25T07:51:07.923Z,101082.41
2023-01-25T07:53:34.431Z,101083.91
2023-01-25T07:56:01.585Z,101075.03
2023-01-25T07:58:28.164Z,101082.69
2023-01-25T08:00:54.783Z,101088.16
2023-01-25T08:03:22.259Z,101085.75
2023-01-25T08:05:49.220Z,101090.22
2023-01-25T08:08:15.780Z,101093.38
2023-01-25T08:10:42.262Z,101094.28
2023-01-25T08:13:08.731Z,101095.44
2023-01-25T08:15:35.210Z,101096.53
2023-01-25T08:18:02.312Z,101095.94
2023-01-25T08:20:28.919Z,101108.97
2023-01-25T08:22:55.540Z,101106.47
2023-01-25T08:25:22.035Z,101110.16
2023-01-25T08:27:48.647Z,101109.28
2023-01-25T08:30:15.700Z,101115.19
2023-01-25T08:32:42.155Z,101117.56
2023-01-25T08:35:09.687Z,101120.22
2023-01-25T08:37:36.414Z,101120.84
2023-01-25T08:40:03.519Z,101116.53
2023-01-25T08:42:32.280Z,101129.91
2023-01-25T08:44:59.052Z,101137.06
2023-01-25T08:47:26.674Z,101132.69
2023-01-25T08:49:55.322Z,101135.03
2023-01-25T08:52:22.916Z,101127.31
2023-01-25T08:54:49.454Z,101130.19
2023-01-25T08:57:15.944Z,101144.19
2023-01-25T08:59:42.447Z,101136.38
2023-01-25T09:02:12.453Z,101143.81
2023-01-25T09:04:39.336Z,101137.88
2023-01-25T09:07:06.165Z,101141.00
2023-01-25T09:09:32.712Z,101142.19
2023-01-25T09:11:59.229Z,101146.25
2023-01-25T09:14:26.118Z,101143.47
2023-01-25T09:16:52.628Z,101137.81
2023-01-25T09:19:19.123Z,101151.38
2023-01-25T09:21:45.755Z,101154.38
2023-01-25T09:24:12.323Z,101152.06
2023-01-25T09:26:42.942Z,101161.13
2023-01-25T09:29:11.884Z,101145.72
2023-01-25T09:31:44.095Z,101145.50
2023-01-25T09:34:13.110Z,101146.66
2023-01-25T09:36:40.018Z,101142.47
2023-01-25T09:39:07.138Z,101148.72
2023-01-25T09:41:42.569Z,101147.22
2023-01-25T09:44:15.460Z,101128.81
2023-01-25T09:46:44.206Z,101126.16
2023-01-25T09:49:28.813Z,101123.19
2023-01-25T09:52:16.947Z,101123.13
2023-01-25T09:54:47.377Z,101110.59
2023-01-25T09:57:38.040Z,101121.31
2023-01-25T10:00:20.756Z,101120.28
2023-01-25T10:02:58.130Z,101124.22
2023-01-25T10:05:31.913Z,101138.44
2023-01-25T10:08:12.350Z,101130.03
2023-01-25T10:10:42.162Z,101134.88
2023-01-25T10:13:14.095Z,101132.56
2023-01-25T10:15:47.955Z,101127.94
2023-01-25T10:18:33.038Z,101131.44
2023-01-25T10:21:04.975Z,101134.66
2023-01-25T10:23:43.589Z,101142.41
2023-01-25T10:26:22.089Z,101157.03
2023-01-25T10:28:59.250Z,101148.19
2023-01-25T10:31:39.213Z,101148.72
2023-01-25T10:34:47.015Z,101162.34
2023-01-25T10:37:26.895Z,101154.50
2023-01-25T10:40:11.956Z,101145.47
2023-01-25T10:42:44.760Z,101148.59
2023-01-25T10:45:16.109Z,101150.31
2023-01-25T10:47:50.440Z,101160.50
2023-01-25T10:50:35.594Z,101162.38
2023-01-25T10:53:01.999Z,101168.59
2023-01-25T10:55:28.568Z,101163.44
2023-01-25T10:58:00.525Z,101164.50
2023-01-25T11:00:41.732Z,101173.13
2023-01-25T11:03:21.591Z,101182.19
2023-01-25T11:05:55.865Z,101185.44
2023-01-25T11:08:37.347Z,101189.38
2023-01-25T11:11:23.285Z,101191.22
2023-01-25T11:13:50.308Z,101187.97
2023-01-25T11:16:24.907Z,101190.81
2023-01-25T11:18:54.118Z,101205.03
2023-01-25T11:21:25.247Z,101204.28
2023-01-25T11:24:11.837Z,101204.00
2023-01-25T11:26:40.697Z,101207.22
2023-01-25T11:29:21.538Z,101203.44
2023-01-25T11:31:51.531Z,101200.03
2023-01-25T11:34:26.466Z,101213.03
2023-01-25T11:37:11.846Z,101206.81
2023-01-25T11:39:50.238Z,101207.91
2023-01-25T11:42:22.703Z,101211.25
2023-01-25T11:45:23.561Z,101216.66
2023-01-25T11:48:28.444Z,101212.91
2023-01-25T11:51:15.599Z,101202.19
2023-01-25T11:54:17.521Z,101204.31
2023-01-25T11:56:49.990Z,101200.53
2023-01-25T11:59:45.078Z,101210.28
2023-01-25T12:02:32.933Z,101196.13
2023-01-25T12:05:22.601Z,101186.00
2023-01-25T12:07:55.047Z,101185.59
2023-01-25T12:10:58.805Z,101190.28
2023-01-25T12:13:31.331Z,101186.22
2023-01-25T12:16:09.810Z,101173.13
2023-01-25T12:18:45.030Z,101164.28
2023-01-25T12:21:31.310Z,101160.88
2023-01-25T12:24:10.480Z,101145.63
2023-01-25T12:26:49.205Z,101141.69
2023-01-25T12:29:25.071Z,101134.84
2023-01-25T12:31:55.409Z,101134.22
2023-01-25T12:34:30.464Z,101137.25
2023-01-25T12:37:03.498Z,101129.56
2023-01-25T12:39:38.082Z,101124.63
2023-01-25T12:42:14.510Z,101116.81
2023-01-25T12:44:49.569Z,101115.03
2023-01-25T12:47:36.308Z,101106.47
2023-01-25T12:50:15.330Z,101099.66
2023-01-25T12:52:49.265Z,101096.59
2023-01-25T12:55:18.264Z,101084.88
2023-01-25T12:58:01.158Z,101078.44
2023-01-25T13:00:33.839Z,101065.41
2023-01-25T13:03:11.081Z,101066.19
2023-01-25T13:06:05.158Z,101065.81
2023-01-25T13:08:49.144Z,101063.53
2023-01-25T13:11:23.929Z,101065.94
2023-01-25T13:13:50.366Z,101064.00
2023-01-25T13:16:29.153Z,101053.28
2023-01-25T13:18:55.968Z,101052.53
2023-01-25T13:21:37.456Z,101043.19
2023-01-25T13:24:13.207Z,101039.78
2023-01-25T13:26:55.010Z,101039.16
2023-01-25T13:29:34.812Z,101040.31
2023-01-25T13:32:02.823Z,101037.91
2023-01-25T13:34:35.726Z,101039.06
2023-01-25T13:37:33.706Z,101035.09
2023-01-25T13:40:26.190Z,101039.78
2023-01-25T13:43:22.466Z,101038.16
2023-01-25T13:45:52.686Z,101027.69
2023-01-25T13:48:25.100Z,101034.00
2023-01-25T13:51:11.993Z,101048.25
2023-01-25T13:53:39.747Z,101051.28
2023-01-25T13:56:24.833Z,101046.22
2023-01-25T13:58:51.331Z,101039.16
2023-01-25T14:01:23.503Z,101038.88
2023-01-25T14:03:53.419Z,101040.69
2023-01-25T14:06:24.989Z,101036.38
2023-01-25T14:08:53.720Z,101036.78
2023-01-25T14:11:26.460Z,101040.31
2023-01-25T14:14:18.792Z,101037.91
2023-01-25T14:16:45.563Z,101034.75
2023-01-25T14:19:29.477Z,101037.78
2023-01-25T14:22:35.711Z,101040.56
2023-01-25T14:25:08.145Z,101046.75
2023-01-25T14:27:37.616Z,101038.16
2023-01-25T14:30:05.580Z,101026.91
2023-01-25T14:32:32.770Z,101030.19
2023-01-25T14:34:59.388Z,101025.53
2023-01-25T14:37:25.940Z,101027.16
2023-01-25T14:39:53.037Z,101030.94
2023-01-25T14:42:20.266Z,101033.59
2023-01-25T14:44:47.474Z,101022.75
2023-01-25T14:47:31.191Z,101039.91
2023-01-25T14:50:30.119Z,101035.25
2023-01-25T14:52:58.889Z,101035.50
2023-01-25T14:55:26.645Z,101042.84
2023-01-25T14:57:59.149Z,101038.53
2023-01-25T15:00:34.491Z,101038.03
2023-01-25T15:03:05.750Z,101029.31
2023-01-25T15:05:35.154Z,101026.91
2023-01-25T15:08:07.771Z,101029.31
2023-01-25T15:10:36.896Z,101021.63
2023-01-25T15:13:14.633Z,101024.75
2023-01-25T15:15:55.285Z,101016.44
2023-01-25T15:18:51.248Z,101029.56
2023-01-25T15:21:26.867Z,101035.75
2023-01-25T15:23:55.589Z,101034.00
2023-01-25T15:26:23.359Z,101045.47
2023-01-25T15:28:52.253Z,101053.81
2023-01-25T15:31:28.769Z,101046.22
2023-01-25T15:34:00.099Z,101042.41
2023-01-25T15:36:27.185Z,101037.25
2023-01-25T15:38:54.726Z,101034.47
2023-01-25T15:41:21.439Z,101034.84
2023-01-25T15:43:48.720Z,101031.06
2023-01-25T15:46:19.275Z,101018.84
2023-01-25T15:48:48.321Z,101016.44
2023-01-25T15:51:15.128Z,101006.06
2023-01-25T15:53:41.827Z,100997.09
2023-01-25T15:56:14.442Z,100998.22
2023-01-25T15:58:44.029Z,100994.81
2023-01-25T16:01:10.700Z,100986.13
2023-01-25T16:03:41.320Z,100967.91
2023-01-25T16:06:41.954Z,100959.72
2023-01-25T16:09:27.003Z,100961.00
2023-01-25T16:11:55.313Z,100944.03
2023-01-25T16:14:23.704Z,100928.44
2023-01-25T16:16:52.804Z,100920.06
2023-01-25T16:19:22.014Z,100914.78
2023-01-25T16:21:49.011Z,100897.75
2023-01-25T16:24:15.586Z,100877.25
2023-01-25T16:26:57.269Z,100861.63
2023-01-25T16:29:24.000Z,100856.50
2023-01-25T16:31:51.979Z,100843.97
2023-01-25T16:34:20.242Z,100836.03
2023-01-25T16:36:50.464Z,100821.31
2023-01-25T16:39:25.381Z,100822.59
2023-01-25T16:41:52.178Z,100812.03
2023-01-25T16:44:18.693Z,100811.63
2023-01-25T16:46:47.471Z,100805.72
2023-01-25T16:49:23.684Z,100800.16
2023-01-25T16:51:50.875Z,100793.59
2023-01-25T16:54:19.997Z,100793.22
2023-01-25T16:56:48.621Z,100785.53
2023-01-25T16:59:15.948Z,100783.25
2023-01-25T17:01:44.171Z,100778.44
2023-01-25T17:04:11.693Z,100768.81
2023-01-25T17:06:47.735Z,100764.69
2023-01-25T17:09:23.767Z,100755.97
2023-01-25T17:11:51.998Z,100755.00
2023-01-25T17:14:19.891Z,100746.41
2023-01-25T17:16:48.483Z,100743.38
2023-01-25T17:19:17.033Z,100731.53
2023-01-25T17:21:44.786Z,100726.25
2023-01-25T17:24:14.842Z,100710.34
2023-01-25T17:26:41.583Z,100706.28
2023-01-25T17:29:10.135Z,100695.16
2023-01-25T17:31:37.444Z,100692.78
2023-01-25T17:34:06.577Z,100689.53
2023-01-25T17:36:33.516Z,100690.03
2023-01-25T17:39:07.270Z,100683.69
2023-01-25T17:41:34.005Z,100680.16
2023-01-25T17:44:00.727Z,100665.19
2023-01-25T17:46:32.420Z,100662.66
2023-01-25T17:49:01.540Z,100667.31
2023-01-25T17:51:28.384Z,100648.91
2023-01-25T17:53:55.099Z,100652.50
2023-01-25T17:56:21.764Z,100644.13
2023-01-25T17:58:48.296Z,100649.97
2023-01-25T18:01:23.500Z,100642.69
2023-01-25T18:03:51.299Z,100643.47
2023-01-25T18:06:21.282Z,100640.81
2023-01-25T18:08:50.145Z,100624.63
2023-01-25T18:11:19.990Z,100618.78
2023-01-25T18:13:49.272Z,100615.31
2023-01-25T18:16:17.557Z,100607.13
2023-01-25T18:18:45.773Z,100601.63
2023-01-25T18:21:22.154Z,100600.28
2023-01-25T18:23:48.908Z,100592.66
2023-01-25T18:26:29.706Z,100591.25
2023-01-25T18:29:37.826Z,100592.66
2023-01-25T18:32:05.577Z,100587.59
2023-01-25T18:34:32.280Z,100588.34
2023-01-25T18:36:59.382Z,100589.91
2023-01-25T18:39:26.704Z,100583.97
2023-01-25T18:41:53.185Z,100575.56
2023-01-25T18:44:19.889Z,100568.34
2023-01-25T18:46:47.938Z,100568.41
2023-01-25T18:49:14.563Z,100563.06
2023-01-25T18:52:01.845Z,100582.38
2023-01-25T18:54:27.603Z,100567.13
2023-01-25T18:56:54.900Z,100565.16
2023-01-25T18:59:21.381Z,100560.28
2023-01-25T19:01:48.317Z,100565.47
2023-01-25T19:04:15.011Z,100561.69
2023-01-25T19:06:41.521Z,100553.25
2023-01-25T19:09:08.046Z,100555.28
2023-01-25T19:11:34.539Z,100555.69
2023-01-25T19:14:01.733Z,100549.06
2023-01-25T19:16:28.412Z,100546.03
2023-01-25T19:18:55.366Z,100538.47
2023-01-25T19:21:26.687Z,100536.16
2023-01-25T19:23:54.872Z,100542.84
2023-01-25T19:26:24.608Z,100531.13
2023-01-25T19:28:52.014Z,100545.31
2023-01-25T19:31:24.120Z,100536.13
2023-01-25T19:34:00.446Z,100538.88
2023-01-25T19:36:29.057Z,100530.44
2023-01-25T19:38:57.361Z,100533.81
2023-01-25T19:41:26.949Z,100536.09
2023-01-25T19:43:58.391Z,100542.00
2023-01-25T19:46:27.657Z,100541.00
2023-01-25T19:48:54.864Z,100536.38
2023-01-25T19:51:24.421Z,100539.25
2023-01-25T19:53:58.582Z,100538.13
2023-01-25T19:56:26.816Z,100536.47
2023-01-25T19:58:53.739Z,100530.00
2023-01-25T20:01:23.103Z,100543.44
2023-01-25T20:03:50.124Z,100533.75
2023-01-25T20:06:18.398Z,100539.25
2023-01-25T20:08:46.478Z,100541.09
2023-01-25T20:11:21.475Z,100545.31
2023-01-25T20:13:49.734Z,100551.50
2023-01-25T20:16:17.238Z,100550.84
2023-01-25T20:18:45.371Z,100537.31
2023-01-25T20:21:15.337Z,100549.63
2023-01-25T20:23:44.373Z,100545.16
2023-01-25T20:26:14.047Z,100545.22
2023-01-25T20:28:42.404Z,100543.66
2023-01-25T20:31:22.676Z,100546.19
2023-01-25T20:33:50.647Z,100553.13
2023-01-25T20:36:17.570Z,100558.16
2023-01-25T20:38:44.896Z,100558.47
2023-01-25T20:41:16.629Z,100548.19
2023-01-25T20:43:57.431Z,100551.44
2023-01-25T20:46:25.249Z,100559.66
2023-01-25T20:48:53.695Z,100547.38
2023-01-25T20:51:21.677Z,100539.03
2023-01-25T20:53:50.059Z,100543.66
2023-01-25T20:56:18.145Z,100548.28
2023-01-25T20:58:50.404Z,100548.75
2023-01-25T21:01:36.547Z,100533.84
2023-01-25T21:04:04.691Z,100543.78
2023-01-25T21:06:31.311Z,100538.41
2023-01-25T21:08:59.259Z,100544.28
2023-01-25T21:11:26.404Z,100542.94
2023-01-25T21:13:54.007Z,100542.59
2023-01-25T21:16:22.270Z,100542.50
2023-01-25T21:18:51.746Z,100537.47
2023-01-25T21:21:23.869Z,100526.19
2023-01-25T21:23:51.012Z,100531.91
2023-01-25T21:26:26.086Z,100526.91
2023-01-25T21:28:56.319Z,100525.25
2023-01-25T21:31:26.344Z,100516.56
2023-01-25T21:33:54.570Z,100505.66
2023-01-25T21:36:22.359Z,100508.47
2023-01-25T21:38:50.354Z,100507.06
2023-01-25T21:41:24.345Z,100507.94
2023-01-25T21:44:14.214Z,100499.19
2023-01-25T21:46:41.374Z,100507.19
2023-01-25T21:49:28.748Z,100495.34
2023-01-25T21:51:59.165Z,100489.19
2023-01-25T21:54:31.146Z,100486.84
2023-01-25T21:56:59.465Z,100481.28
2023-01-25T21:59:27.468Z,100478.97
2023-01-25T22:01:55.211Z,100474.66
2023-01-25T22:04:23.889Z,100466.13
2023-01-25T22:06:52.503Z,100459.44
2023-01-25T22:09:19.348Z,100450.75
2023-01-25T22:11:48.054Z,100437.72
2023-01-25T22:14:15.568Z,100432.13
2023-01-25T22:16:42.253Z,100420.34
2023-01-25T22:19:08.953Z,100431.69
2023-01-25T22:21:35.495Z,100431.88
2023-01-25T22:24:04.653Z,100430.91
2023-01-25T22:26:47.868Z,100426.72
2023-01-25T22:29:15.185Z,100415.13
2023-01-25T22:31:42.272Z,100417.44
2023-01-25T22:34:09.588Z,100414.00
2023-01-25T22:36:36.136Z,100408.00
2023-01-25T22:39:02.671Z,100405.78
2023-01-25T22:41:31.651Z,100402.72
2023-01-25T22:43:58.508Z,100392.50
2023-01-25T22:46:27.760Z,100395.38
2023-01-25T22:48:54.664Z,100393.06
2023-01-25T22:51:31.399Z,100388.34
2023-01-25T22:53:59.717Z,100381.66
2023-01-25T22:56:34.163Z,100393.59
2023-01-25T22:59:01.742Z,100386.34
2023-01-25T23:01:31.187Z,100394.06
2023-01-25T23:03:57.846Z,100398.88
2023-01-25T23:06:27.193Z,100390.53
2023-01-25T23:09:00.105Z,100389.22
2023-01-25T23:11:32.313Z,100386.13
2023-01-25T23:14:18.579Z,100389.13
2023-01-25T23:16:45.211Z,100391.78
2023-01-25T23:19:11.984Z,100377.38
2023-01-25T23:21:38.564Z,100379.56
2023-01-25T23:24:05.616Z,100382.19
2023-01-25T23:26:37.551Z,100377.16
2023-01-25T23:29:07.328Z,100366.84
2023-01-25T23:31:33.982Z,100361.47
2023-01-25T23:34:02.804Z,100364.94
2023-01-25T23:36:44.419Z,100343.69
2023-01-25T23:39:12.991Z,100350.91
2023-01-25T23:41:39.505Z,100357.72
2023-01-25T23:44:06.002Z,100358.16
2023-01-25T23:46:32.569Z,100350.28
2023-01-25T23:48:59.149Z,100340.06
2023-01-25T23:51:25.697Z,100331.06
2023-01-25T23:53:53.591Z,100323.25
2023-01-25T23:56:21.674Z,100317.00
2023-01-25T23:58:49.054Z,100326.88
